createdAt,value
2019-03-18T00:00:35.063Z,95719.27
2019-03-18T00:03:08.618Z,95734.06
2019-03-18T00:05:41.057Z,95730.37
2019-03-18T00:08:14.027Z,95734.94
2019-03-18T00:10:49.514Z,95726.03
2019-03-18T00:13:22.598Z,95728.11
2019-03-18T00:15:54.988Z,95731.41
2019-03-18T00:18:28.770Z,95744.64
2019-03-18T00:21:02.239Z,95739.16
2019-03-18T00:23:34.258Z,95743.66
2019-03-18T00:26:09.766Z,95732.52
2019-03-18T00:28:41.298Z,95732.41
2019-03-18T00:31:15.312Z,95737.05
2019-03-18T00:33:47.281Z,95753.28
2019-03-18T00:36:20.784Z,95743.59
2019-03-18T00:38:53.319Z,95744.17
2019-03-18T00:41:26.173Z,95743.34
2019-03-18T00:43:59.129Z,95733.90
2019-03-18T00:46:32.130Z,95730.91
2019-03-18T00:49:05.204Z,95727.95
2019-03-18T00:51:38.139Z,95725.46
2019-03-18T00:54:12.348Z,95738.05
2019-03-18T00:56:44.976Z,95732.83
2019-03-18T00:59:17.318Z,95731.52
2019-03-18T01:01:50.880Z,95734.66
2019-03-18T01:04:25.787Z,95718.92
2019-03-18T01:06:59.803Z,95726.09
2019-03-18T01:09:32.356Z,95723.80
2019-03-18T01:12:05.317Z,95726.14
2019-03-18T01:14:39.514Z,95729.27
2019-03-18T01:17:11.409Z,95733.30
2019-03-18T01:19:44.382Z,95720.78
2019-03-18T01:22:16.531Z,95711.88
2019-03-18T01:24:50.772Z,95708.20
2019-03-18T01:27:25.589Z,95712.70
2019-03-18T01:30:03.820Z,95713.27
2019-03-18T01:32:35.671Z,95710.50
2019-03-18T01:35:08.979Z,95704.48
2019-03-18T01:37:42.462Z,95705.33
2019-03-18T01:40:15.255Z,95715.39
2019-03-18T01:42:48.628Z,95710.83
2019-03-18T01:45:22.610Z,95705.03
2019-03-18T01:47:55.636Z,95706.09
2019-03-18T01:50:29.479Z,95704.72
2019-03-18T01:53:03.568Z,95702.17
2019-03-18T01:55:35.466Z,95706.20
2019-03-18T01:58:08.656Z,95708.59
2019-03-18T02:00:42.463Z,95716.20
2019-03-18T02:03:14.631Z,95712.92
2019-03-18T02:05:46.022Z,95723.84
2019-03-18T02:08:17.572Z,95727.73
2019-03-18T02:10:53.075Z,95722.39
2019-03-18T02:13:26.626Z,95745.09
2019-03-18T02:16:00.045Z,95719.16
2019-03-18T02:18:33.637Z,95716.39
2019-03-18T02:21:06.015Z,95717.10
2019-03-18T02:23:40.080Z,95728.55
2019-03-18T02:26:11.749Z,95723.08
2019-03-18T02:28:47.259Z,95726.76
2019-03-18T02:31:17.791Z,95735.55
2019-03-18T02:33:53.284Z,95732.94
2019-03-18T02:36:26.708Z,95745.58
2019-03-18T02:39:00.000Z,95731.73
2019-03-18T02:41:31.668Z,95720.44
2019-03-18T02:44:05.876Z,95723.88
2019-03-18T02:46:38.866Z,95724.77
2019-03-18T02:49:11.915Z,95702.75
2019-03-18T02:51:44.765Z,95707.39
2019-03-18T02:54:17.805Z,95712.85
2019-03-18T02:56:50.744Z,95708.94
2019-03-18T02:59:25.521Z,95719.17
2019-03-18T03:01:56.713Z,95721.64
2019-03-18T03:04:27.923Z,95719.72
2019-03-18T03:06:59.494Z,95727.55
2019-03-18T03:09:34.549Z,95740.53
2019-03-18T03:12:05.749Z,95747.07
2019-03-18T03:14:38.870Z,95744.47
2019-03-18T03:17:13.483Z,95747.77
2019-03-18T03:19:44.851Z,95737.33
2019-03-18T03:22:16.075Z,95732.63
2019-03-18T03:24:48.691Z,95737.75
2019-03-18T03:27:21.172Z,95745.74
2019-03-18T03:29:55.063Z,95735.38
2019-03-18T03:32:27.040Z,95743.91
2019-03-18T03:34:59.109Z,95733.27
2019-03-18T03:37:34.880Z,95740.17
2019-03-18T03:40:08.248Z,95740.41
2019-03-18T03:42:41.393Z,95735.34
2019-03-18T03:45:14.097Z,95738.15
2019-03-18T03:47:47.098Z,95731.90
2019-03-18T03:50:18.974Z,95717.27
2019-03-18T03:52:51.125Z,95729.81
2019-03-18T03:55:22.963Z,95737.12
2019-03-18T03:57:56.339Z,95737.38
2019-03-18T04:00:28.165Z,95746.97
2019-03-18T04:02:59.431Z,95755.94
2019-03-18T04:05:32.705Z,95774.99
2019-03-18T04:08:04.870Z,95787.76
2019-03-18T04:10:54.628Z,95782.56
2019-03-18T04:13:26.332Z,95777.68
2019-03-18T04:15:59.984Z,95795.75
2019-03-18T04:18:33.071Z,95795.32
2019-03-18T04:21:08.882Z,95779.66
2019-03-18T04:23:41.233Z,95775.04
2019-03-18T04:26:15.490Z,95763.80
2019-03-18T04:28:48.983Z,95771.50
2019-03-18T04:31:21.200Z,95780.74
2019-03-18T04:33:54.189Z,95782.46
2019-03-18T04:36:28.051Z,95772.52
2019-03-18T04:39:02.269Z,95782.86
2019-03-18T04:41:36.098Z,95779.82
2019-03-18T04:44:10.326Z,95777.09
2019-03-18T04:46:42.429Z,95804.05
2019-03-18T04:49:15.078Z,95820.80
2019-03-18T04:51:48.973Z,95821.42
2019-03-18T04:54:22.183Z,95821.22
2019-03-18T04:56:54.380Z,95812.86
2019-03-18T04:59:26.827Z,95797.03
2019-03-18T05:01:59.623Z,95789.34
2019-03-18T05:04:34.916Z,95811.80
2019-03-18T05:07:08.339Z,95808.91
2019-03-18T05:09:41.301Z,95795.78
2019-03-18T05:12:14.950Z,95799.06
2019-03-18T05:14:47.444Z,95817.70
2019-03-18T05:17:26.468Z,95832.27
2019-03-18T05:19:54.389Z,95833.45
2019-03-18T05:22:26.336Z,95851.31
2019-03-18T05:25:01.357Z,95832.87
2019-03-18T05:27:33.347Z,95839.60
2019-03-18T05:30:06.676Z,95839.50
2019-03-18T05:32:38.335Z,95849.03
2019-03-18T05:35:11.728Z,95834.72
2019-03-18T05:37:46.281Z,95837.98
2019-03-18T05:40:17.540Z,95835.61
2019-03-18T05:42:52.310Z,95837.98
2019-03-18T05:45:27.324Z,95839.61
2019-03-18T05:48:00.621Z,95856.02
2019-03-18T05:50:33.425Z,95874.41
2019-03-18T05:53:05.836Z,95888.85
2019-03-18T05:55:37.166Z,95894.91
2019-03-18T05:58:08.637Z,95891.66
2019-03-18T06:00:42.631Z,95912.23
2019-03-18T06:03:14.599Z,95910.76
2019-03-18T06:05:45.824Z,95900.45
2019-03-18T06:08:17.706Z,95891.74
2019-03-18T06:10:53.575Z,95908.59
2019-03-18T06:13:26.631Z,95917.57
2019-03-18T06:15:59.843Z,95919.14
2019-03-18T06:18:34.040Z,95918.57
2019-03-18T06:21:06.794Z,95903.34
2019-03-18T06:23:42.291Z,95912.41
2019-03-18T06:26:15.952Z,95916.20
2019-03-18T06:35:13.453Z,95957.84
2019-03-18T06:37:45.274Z,95954.03
2019-03-18T06:40:16.871Z,95939.15
2019-03-18T06:42:52.456Z,95936.32
2019-03-18T06:45:23.888Z,95924.93
2019-03-18T06:48:04.819Z,95920.21
2019-03-18T06:50:30.308Z,95925.92
2019-03-18T06:53:03.406Z,95927.10
2019-03-18T06:55:35.835Z,95937.44
2019-03-18T06:58:09.068Z,95941.60
2019-03-18T07:00:42.667Z,95929.83
2019-03-18T07:03:15.743Z,95946.87
2019-03-18T07:05:48.876Z,95952.31
2019-03-18T07:08:21.375Z,95970.16
2019-03-18T07:10:53.987Z,95974.35
2019-03-18T07:13:26.967Z,95972.08
2019-03-18T07:16:00.503Z,95981.34
2019-03-18T07:18:34.506Z,95980.23
2019-03-18T07:21:07.732Z,95991.74
2019-03-18T07:23:42.817Z,95988.42
2019-03-18T07:26:14.983Z,95987.48
2019-03-18T07:28:47.938Z,95977.44
2019-03-18T07:31:21.170Z,95966.19
2019-03-18T07:33:52.525Z,95975.88
2019-03-18T07:36:25.190Z,95982.14
2019-03-18T07:38:56.459Z,95990.59
2019-03-18T07:41:30.058Z,95975.36
2019-03-18T07:44:03.052Z,95984.40
2019-03-18T07:46:36.268Z,95998.25
2019-03-18T07:49:09.114Z,95982.87
2019-03-18T07:51:41.089Z,96002.23
2019-03-18T07:54:15.459Z,96003.11
2019-03-18T07:56:48.960Z,96016.11
2019-03-18T07:59:23.186Z,96015.39
2019-03-18T08:01:56.241Z,96008.87
2019-03-18T08:04:37.471Z,96021.78
2019-03-18T08:07:03.284Z,96016.19
2019-03-18T08:09:36.191Z,96015.72
2019-03-18T08:12:09.147Z,96008.09
2019-03-18T08:14:42.300Z,96015.91
2019-03-18T08:17:15.379Z,96017.71
2019-03-18T08:19:48.271Z,96022.71
2019-03-18T08:22:21.775Z,96017.83
2019-03-18T08:24:54.442Z,96016.83
2019-03-18T08:27:27.424Z,96027.69
2019-03-18T08:29:59.583Z,96043.66
2019-03-18T08:32:34.737Z,96037.86
2019-03-18T08:35:07.373Z,96020.64
2019-03-18T08:37:39.363Z,96024.89
2019-03-18T08:40:12.533Z,96019.09
2019-03-18T08:42:45.668Z,96025.27
2019-03-18T08:45:17.270Z,96034.14
2019-03-18T08:47:51.479Z,96032.00
2019-03-18T08:50:23.876Z,96015.55
2019-03-18T08:52:55.490Z,96007.30
2019-03-18T08:55:28.073Z,96026.73
2019-03-18T08:57:59.499Z,96052.48
2019-03-18T09:00:33.551Z,96057.73
2019-03-18T09:03:06.386Z,96041.66
2019-03-18T09:05:40.132Z,96038.98
2019-03-18T09:08:11.345Z,96038.71
2019-03-18T09:10:42.550Z,96027.92
2019-03-18T09:13:16.129Z,96016.39
2019-03-18T09:15:48.700Z,96028.98
2019-03-18T09:18:22.164Z,96027.00
2019-03-18T09:20:53.519Z,96010.41
2019-03-18T09:23:27.031Z,96019.82
2019-03-18T09:25:59.695Z,96015.85
2019-03-18T09:28:33.687Z,96011.50
2019-03-18T09:31:07.611Z,96033.19
2019-03-18T09:33:42.715Z,96043.59
2019-03-18T09:36:16.556Z,96036.72
2019-03-18T09:38:48.144Z,96033.45
2019-03-18T09:41:20.911Z,96055.41
2019-03-18T09:43:54.539Z,96083.56
2019-03-18T09:46:26.722Z,96076.30
2019-03-18T09:48:59.688Z,96066.13
2019-03-18T09:51:38.051Z,96056.69
2019-03-18T09:54:11.584Z,96065.23
2019-03-18T09:56:43.829Z,96068.77
2019-03-18T09:59:19.356Z,96070.48
2019-03-18T10:01:52.897Z,96081.84
2019-03-18T10:04:27.642Z,96080.27
2019-03-18T10:07:01.491Z,96066.92
2019-03-18T10:09:33.106Z,96064.22
2019-03-18T10:12:05.749Z,96069.94
2019-03-18T10:14:38.679Z,96083.45
2019-03-18T10:17:12.473Z,96084.37
2019-03-18T10:19:44.963Z,96087.27
2019-03-18T10:22:20.455Z,96088.09
2019-03-18T10:24:51.790Z,96091.37
2019-03-18T10:27:25.688Z,96085.53
2019-03-18T10:29:56.966Z,96079.09
2019-03-18T10:32:28.935Z,96083.05
2019-03-18T10:35:04.711Z,96085.95
2019-03-18T10:37:38.991Z,96092.21
2019-03-18T10:40:12.007Z,96102.20
2019-03-18T10:42:43.279Z,96103.05
2019-03-18T10:45:15.338Z,96116.23
2019-03-18T10:47:48.909Z,96114.22
2019-03-18T10:50:22.946Z,96108.48
2019-03-18T10:52:56.651Z,96117.24
2019-03-18T10:55:29.952Z,96098.05
2019-03-18T10:58:03.215Z,96108.95
2019-03-18T11:00:36.118Z,96116.84
2019-03-18T11:03:09.211Z,96118.31
2019-03-18T11:05:42.571Z,96120.90
2019-03-18T11:08:16.045Z,96115.66
2019-03-18T11:10:48.460Z,96116.19
2019-03-18T11:13:20.364Z,96126.58
2019-03-18T11:15:54.640Z,96117.80
2019-03-18T11:18:27.840Z,96118.83
2019-03-18T11:21:00.058Z,96112.52
2019-03-18T11:23:33.323Z,96112.37
2019-03-18T11:26:06.738Z,96104.61
2019-03-18T11:28:39.073Z,96114.35
2019-03-18T11:31:13.823Z,96112.90
2019-03-18T11:33:46.591Z,96119.69
2019-03-18T11:36:18.091Z,96110.55
2019-03-18T11:38:49.293Z,96115.00
2019-03-18T11:41:21.037Z,96123.43
2019-03-18T11:43:54.185Z,96116.52
2019-03-18T11:46:27.340Z,96110.78
2019-03-18T11:49:01.260Z,96121.97
2019-03-18T11:51:33.959Z,96109.61
2019-03-18T11:54:07.563Z,96107.50
2019-03-18T11:56:40.613Z,96105.45
2019-03-18T11:59:13.280Z,96095.86
2019-03-18T12:01:47.247Z,96090.28
2019-03-18T12:04:21.564Z,96093.13
2019-03-18T12:06:54.279Z,96103.34
2019-03-18T12:09:27.288Z,96107.72
2019-03-18T12:12:00.328Z,96100.17
2019-03-18T12:14:33.430Z,96107.41
2019-03-18T12:17:06.543Z,96106.44
2019-03-18T12:19:39.224Z,96093.63
2019-03-18T12:22:12.445Z,96085.72
2019-03-18T12:24:45.443Z,96100.72
2019-03-18T12:27:18.284Z,96095.23
2019-03-18T12:29:52.324Z,96098.87
2019-03-18T12:32:25.418Z,96104.20
2019-03-18T12:34:56.847Z,96097.09
2019-03-18T12:37:32.927Z,96091.05
2019-03-18T12:40:04.550Z,96095.72
2019-03-18T12:42:37.188Z,96090.70
2019-03-18T12:45:12.406Z,96097.34
2019-03-18T12:47:47.468Z,96084.25
2019-03-18T12:50:38.717Z,96084.41
2019-03-18T12:52:56.635Z,96079.64
2019-03-18T12:55:31.708Z,96073.17
2019-03-18T12:58:03.544Z,96077.75
2019-03-18T13:00:36.553Z,96083.67
2019-03-18T13:03:09.592Z,96078.58
2019-03-18T13:05:43.419Z,96074.66
2019-03-18T13:08:15.477Z,96080.06
2019-03-18T13:10:48.763Z,96096.28
2019-03-18T13:13:23.778Z,96094.48
2019-03-18T13:15:56.987Z,96094.92
2019-03-18T13:18:30.623Z,96093.89
2019-03-18T13:21:08.132Z,96089.03
2019-03-18T13:23:38.129Z,96095.34
2019-03-18T13:26:09.609Z,96092.39
2019-03-18T13:28:43.730Z,96089.23
2019-03-18T13:31:16.084Z,96090.50
2019-03-18T13:33:49.673Z,96101.77
2019-03-18T13:36:25.482Z,96099.56
2019-03-18T13:38:56.948Z,96101.34
2019-03-18T13:41:29.608Z,96101.42
2019-03-18T13:44:03.598Z,96092.19
2019-03-18T13:46:39.282Z,96106.61
2019-03-18T13:49:11.760Z,96095.84
2019-03-18T13:51:45.791Z,96107.47
2019-03-18T13:54:19.738Z,96110.90
2019-03-18T13:56:51.769Z,96103.14
2019-03-18T13:59:24.267Z,96112.80
2019-03-18T14:01:55.923Z,96118.34
2019-03-18T14:04:28.240Z,96120.56
2019-03-18T14:07:00.941Z,96124.86
2019-03-18T14:09:35.850Z,96129.52
2019-03-18T14:12:09.753Z,96127.58
2019-03-18T14:14:41.816Z,96137.11
2019-03-18T14:17:15.745Z,96149.48
2019-03-18T14:19:47.826Z,96151.21
2019-03-18T14:22:20.855Z,96146.41
2019-03-18T14:24:54.866Z,96147.77
2019-03-18T14:27:28.288Z,96143.77
2019-03-18T14:30:00.916Z,96139.95
2019-03-18T14:32:35.807Z,96151.59
2019-03-18T14:35:08.974Z,96161.67
2019-03-18T14:37:41.878Z,96163.23
2019-03-18T14:40:14.866Z,96170.48
2019-03-18T14:42:48.488Z,96190.11
2019-03-18T14:45:21.037Z,96179.83
2019-03-18T14:47:55.026Z,96180.58
2019-03-18T14:50:28.791Z,96166.64
2019-03-18T14:52:59.993Z,96170.21
2019-03-18T14:55:32.976Z,96166.11
2019-03-18T14:58:06.656Z,96164.54
2019-03-18T15:00:40.097Z,96168.20
2019-03-18T15:03:15.113Z,96172.72
2019-03-18T15:05:55.090Z,96164.39
2019-03-18T15:08:27.571Z,96173.48
2019-03-18T15:11:00.162Z,96184.23
2019-03-18T15:13:33.290Z,96179.77
2019-03-18T15:16:06.642Z,96171.27
2019-03-18T15:18:39.451Z,96173.03
2019-03-18T15:21:12.242Z,96167.59
2019-03-18T15:23:45.240Z,96151.02
2019-03-18T15:26:18.247Z,96152.67
2019-03-18T15:28:53.032Z,96156.56
2019-03-18T15:31:25.069Z,96149.23
2019-03-18T15:33:57.019Z,96156.33
2019-03-18T15:36:30.013Z,96162.39
2019-03-18T15:39:05.730Z,96159.11
2019-03-18T15:41:41.031Z,96166.73
2019-03-18T15:44:13.840Z,96188.75
2019-03-18T15:46:46.201Z,96195.65
2019-03-18T15:49:41.038Z,96187.99
2019-03-18T15:52:12.641Z,96189.23
2019-03-18T15:54:53.338Z,96190.05
2019-03-18T15:57:29.179Z,96201.33
2019-03-18T15:59:53.299Z,96197.98
2019-03-18T16:02:25.649Z,96208.14
2019-03-18T16:04:56.908Z,96215.77
2019-03-18T16:07:30.579Z,96221.19
2019-03-18T16:10:03.682Z,96214.64
2019-03-18T16:12:36.487Z,96220.48
2019-03-18T16:15:10.559Z,96221.08
2019-03-18T16:17:43.291Z,96222.03
2019-03-18T16:20:15.520Z,96224.33
2019-03-18T16:22:47.539Z,96234.61
2019-03-18T16:25:23.033Z,96229.73
2019-03-18T16:27:56.890Z,96228.64
2019-03-18T16:30:29.649Z,96227.36
2019-03-18T16:33:03.614Z,96228.39
2019-03-18T16:35:34.805Z,96229.62
2019-03-18T16:38:06.627Z,96231.98
2019-03-18T16:40:40.433Z,96230.27
2019-03-18T16:43:12.564Z,96244.31
2019-03-18T16:45:44.576Z,96239.55
2019-03-18T16:48:17.371Z,96244.84
2019-03-18T16:50:53.508Z,96245.31
2019-03-18T16:53:25.864Z,96251.96
2019-03-18T16:55:57.129Z,96257.45
2019-03-18T16:58:30.568Z,96251.52
2019-03-18T17:01:04.688Z,96255.77
2019-03-18T17:03:38.292Z,96259.88
2019-03-18T17:06:13.754Z,96267.56
2019-03-18T17:08:46.278Z,96263.98
2019-03-18T17:11:18.494Z,96263.66
2019-03-18T17:13:53.259Z,96266.59
2019-03-18T17:16:24.653Z,96271.84
2019-03-18T17:18:56.624Z,96278.23
2019-03-18T17:21:30.616Z,96277.61
2019-03-18T17:24:03.614Z,96280.52
2019-03-18T17:26:36.839Z,96284.99
2019-03-18T17:29:09.874Z,96286.22
2019-03-18T17:31:43.102Z,96292.22
2019-03-18T17:34:14.752Z,96289.46
2019-03-18T17:36:47.019Z,96289.47
2019-03-18T17:39:18.904Z,96291.27
2019-03-18T17:41:51.762Z,96296.95
2019-03-18T17:44:24.886Z,96294.55
2019-03-18T17:46:57.203Z,96295.69
2019-03-18T17:49:28.879Z,96306.67
2019-03-18T17:52:00.905Z,96306.89
2019-03-18T17:54:34.917Z,96309.20
2019-03-18T17:57:07.806Z,96318.41
2019-03-18T17:59:40.256Z,96321.52
2019-03-18T18:02:12.857Z,96327.64
2019-03-18T18:04:46.858Z,96332.94
2019-03-18T18:07:19.079Z,96343.41
2019-03-18T18:09:51.933Z,96349.13
2019-03-18T18:12:25.078Z,96348.88
2019-03-18T18:14:59.099Z,96351.47
2019-03-18T18:17:34.077Z,96350.80
2019-03-18T18:20:07.453Z,96351.44
2019-03-18T18:22:41.310Z,96358.82
2019-03-18T18:25:12.925Z,96356.37
2019-03-18T18:27:46.108Z,96364.06
2019-03-18T18:30:19.001Z,96373.09
2019-03-18T18:32:52.897Z,96372.03
2019-03-18T18:35:26.163Z,96375.64
2019-03-18T18:37:57.524Z,96377.36
2019-03-18T18:40:31.159Z,96377.36
2019-03-18T18:43:04.051Z,96387.59
2019-03-18T18:45:37.045Z,96382.08
2019-03-18T18:48:10.109Z,96385.41
2019-03-18T18:50:41.716Z,96394.52
2019-03-18T18:53:13.035Z,96385.12
2019-03-18T18:55:46.052Z,96385.48
2019-03-18T18:58:20.268Z,96393.42
2019-03-18T19:00:52.254Z,96390.97
2019-03-18T19:03:25.682Z,96392.74
2019-03-18T19:05:58.903Z,96390.97
2019-03-18T19:08:31.182Z,96392.08
2019-03-18T19:11:04.217Z,96395.22
2019-03-18T19:13:38.693Z,96394.45
2019-03-18T19:16:12.155Z,96393.63
2019-03-18T19:18:46.333Z,96399.70
2019-03-18T19:21:19.253Z,96397.52
2019-03-18T19:23:52.262Z,96393.12
2019-03-18T19:26:25.266Z,96394.10
2019-03-18T19:28:58.274Z,96393.43
2019-03-18T19:31:32.075Z,96395.05
2019-03-18T19:34:06.341Z,96392.23
2019-03-18T19:36:40.436Z,96392.51
2019-03-18T19:39:12.548Z,96394.69
2019-03-18T19:41:46.396Z,96394.81
2019-03-18T19:44:18.567Z,96406.55
2019-03-18T19:46:53.935Z,96407.89
2019-03-18T19:49:28.241Z,96410.12
2019-03-18T19:52:02.157Z,96415.51
2019-03-18T19:54:34.379Z,96424.47
2019-03-18T19:57:07.184Z,96427.67
2019-03-18T19:59:38.909Z,96439.16
2019-03-18T20:02:11.571Z,96443.55
2019-03-18T20:04:46.459Z,96452.70
2019-03-18T20:07:18.752Z,96451.75
2019-03-18T20:09:52.126Z,96454.13
2019-03-18T20:12:24.483Z,96397.06
2019-03-18T20:14:59.057Z,96453.68
2019-03-18T20:17:31.906Z,96459.19
2019-03-18T20:20:03.741Z,96458.60
2019-03-18T20:22:36.616Z,96461.58
2019-03-18T20:25:09.813Z,96471.73
2019-03-18T20:27:41.507Z,96470.31
2019-03-18T20:30:16.139Z,96475.55
2019-03-18T20:32:48.907Z,96466.23
2019-03-18T20:35:21.965Z,96467.95
2019-03-18T20:37:54.731Z,96476.16
2019-03-18T20:40:28.473Z,96472.56
2019-03-18T20:43:00.697Z,96485.73
2019-03-18T20:45:33.748Z,96491.84
2019-03-18T20:48:06.756Z,96494.78
2019-03-18T20:50:39.764Z,96496.41
2019-03-18T20:53:12.728Z,96498.52
2019-03-18T20:55:45.728Z,96501.36
2019-03-18T20:58:18.673Z,96503.61
2019-03-18T21:00:52.958Z,96501.56
2019-03-18T21:03:24.663Z,96503.85
2019-03-18T21:05:57.696Z,96502.70
2019-03-18T21:08:30.790Z,96509.75
2019-03-18T21:11:05.542Z,96507.63
2019-03-18T21:13:39.795Z,96509.23
2019-03-18T21:16:12.952Z,96511.19
2019-03-18T21:18:45.737Z,96515.75
2019-03-18T21:21:19.810Z,96522.99
2019-03-18T21:23:53.031Z,96527.92
2019-03-18T21:26:25.812Z,96528.75
2019-03-18T21:28:57.530Z,96538.06
2019-03-18T21:31:28.802Z,96534.04
2019-03-18T21:34:02.553Z,96532.95
2019-03-18T21:36:38.198Z,96535.38
2019-03-18T21:39:09.836Z,96532.95
2019-03-18T21:41:42.891Z,96533.50
2019-03-18T21:44:15.857Z,96540.63
2019-03-18T21:46:48.023Z,96546.72
2019-03-18T21:49:22.078Z,96553.56
2019-03-18T21:51:54.837Z,96552.88
2019-03-18T21:54:34.214Z,96553.52
2019-03-18T21:57:00.988Z,96559.57
2019-03-18T21:59:33.999Z,96556.73
2019-03-18T22:02:07.044Z,96549.94
2019-03-18T22:04:39.137Z,96559.06
2019-03-18T22:07:12.962Z,96561.45
2019-03-18T22:09:44.483Z,96563.00
2019-03-18T22:12:17.640Z,96559.71
2019-03-18T22:14:49.367Z,96566.19
2019-03-18T22:17:22.068Z,96568.80
2019-03-18T22:19:55.342Z,96575.56
2019-03-18T22:22:29.814Z,96580.01
2019-03-18T22:25:02.700Z,96577.22
2019-03-18T22:27:36.034Z,96578.11
2019-03-18T22:30:10.203Z,96573.13
2019-03-18T22:32:43.372Z,96575.95
2019-03-18T22:35:15.323Z,96573.41
2019-03-18T22:37:50.787Z,96577.84
2019-03-18T22:40:22.045Z,96573.05
2019-03-18T22:42:54.896Z,96573.06
2019-03-18T22:45:29.900Z,96574.41
2019-03-18T22:48:01.542Z,96568.69
2019-03-18T22:50:35.342Z,96574.36
2019-03-18T22:53:08.204Z,96570.28
2019-03-18T22:55:41.138Z,96571.75
2019-03-18T22:58:13.229Z,96573.95
2019-03-18T23:00:49.294Z,96572.83
2019-03-18T23:03:23.218Z,96574.96
2019-03-18T23:05:55.576Z,96580.72
2019-03-18T23:08:28.281Z,96586.38
2019-03-18T23:11:01.360Z,96583.34
2019-03-18T23:13:33.630Z,96585.87
2019-03-18T23:16:07.873Z,96586.05
2019-03-18T23:18:40.465Z,96593.15
2019-03-18T23:21:13.385Z,96583.66
2019-03-18T23:23:46.243Z,96590.48
2019-03-18T23:26:19.209Z,96596.31
2019-03-18T23:28:52.405Z,96593.78
2019-03-18T23:31:25.398Z,96600.17
2019-03-18T23:33:57.827Z,96603.47
2019-03-18T23:36:31.381Z,96599.78
2019-03-18T23:39:08.340Z,96602.72
2019-03-18T23:41:40.521Z,96605.68
2019-03-18T23:44:13.345Z,96611.74
2019-03-18T23:46:47.339Z,96610.17
2019-03-18T23:49:20.715Z,96618.20
2019-03-18T23:51:52.653Z,96612.13
2019-03-18T23:54:25.635Z,96614.53
2019-03-18T23:56:57.856Z,96622.22
2019-03-18T23:59:33.278Z,96619.45
